WAAA/UPG METAR and TAF weather

Enter ICAO airport designator
Station Type Date Time Source
WAAA METAR 2019/08/22 05:00 UTC NOAA

WAAA 220500Z 28012KT 9999 FEW020 32/18 Q1010 NOSIG


Station Type Date Time Source
WAAA Decoded METAR 2019/08/22 05:00 UTC NOAA

Station name not available
Aug 22, 2019 - 01:00 AM EDT / 2019.08.22 0500 UTC
Wind: from the W (280 degrees) at 14 MPH (12 KT):0
Visibility: greater than 7 mile(s):0
Sky conditions: mostly clear
Temperature: 89 F (32 C)
Dew Point: 64 F (18 C)
Relative Humidity: 43%
Pressure (altimeter): 29.83 in. Hg (1010 hPa)
ob: WAAA 220500Z 28012KT 9999 FEW020 32/18 Q1010 NOSIG
cycle: 5

Station Type Date Time Source
WAAA TAF 2019/08/22 06:09 UTC NOAA

TAF TAF WAAA 220500Z 2206/2312 08012KT 9999 FEW019
BECMG 2219/2221 20005KT
BECMG 2221/2223 9999
BECMG 2301/2303 09012KT

Example: see airport list